Archival Weather

Vermilion Rgnl

Danville, Illinois (KDNV)

Report from: Tuesday, March 26, 2024 6:55 AM CDT
Current time: Sunday, July 14, 2024 4:49 AM CDT

Current weather – Weather history – Daily summaries
Weather forecast

Temperature12.0°C (53.6°F)
Dew point10.3°C (50.5°F)
Winds 15 kts (7.7 m/s, 17.3 mph) South (180°)
Wind gusts 25 kts (12.9 m/s, 28.8 mph)
Visibility10 mi. (16.1 km)
Clouds Ceiling: Overcast 1,100 ft. (335 m)
Altimeter29.50 in.Hg (999 mB)
Precip last 24 hours0.33 in. (8 mm)
Relative humidity89 %
Density altitude306 ft. (93 m)
Remarks Fully automated report
Automated weather observing station with precipitation discriminator
Flight conditions Marginal Visual Meteorological Conditions
Raw dataKDNV 261155Z AUTO 18015G25KT 10SM OVC011 12/10 A2950 RMK AO2 70033 T01200103 10122 20097
An error has occurred. This application may no longer respond until reloaded. Reload 🗙